sensor_id;sensor_type;location;lat;lon;timestamp;pressure;altitude;pressure_sealevel;temperature;humidity
17230;BME280;8731;50.364;8.958;2024-02-28T00:03:25;100290.63;;;4.75;85.44
17230;BME280;8731;50.364;8.958;2024-02-28T00:07:48;100283.56;;;4.72;84.37
17230;BME280;8731;50.364;8.958;2024-02-28T00:12:13;100283.41;;;4.63;85.50
17230;BME280;8731;50.364;8.958;2024-02-28T00:16:35;100289.34;;;4.57;85.92
17230;BME280;8731;50.364;8.958;2024-02-28T00:20:59;100286.47;;;4.54;85.77
17230;BME280;8731;50.364;8.958;2024-02-28T00:25:21;100304.28;;;4.41;85.35
17230;BME280;8731;50.364;8.958;2024-02-28T00:29:43;100309.88;;;4.46;86.75
17230;BME280;8731;50.364;8.958;2024-02-28T00:34:07;100312.03;;;4.28;86.89
17230;BME280;8731;50.364;8.958;2024-02-28T00:38:32;100318.69;;;4.35;86.80
17230;BME280;8731;50.364;8.958;2024-02-28T00:42:55;100314.88;;;4.24;87.18
17230;BME280;8731;50.364;8.958;2024-02-28T00:47:17;100315.09;;;4.26;86.78
17230;BME280;8731;50.364;8.958;2024-02-28T00:51:40;100324.06;;;4.24;86.33
17230;BME280;8731;50.364;8.958;2024-02-28T00:56:05;100331.84;;;3.70;92.22
17230;BME280;8731;50.364;8.958;2024-02-28T01:00:27;100336.41;;;3.87;89.28
17230;BME280;8731;50.364;8.958;2024-02-28T01:04:50;100333.53;;;3.91;87.85
17230;BME280;8731;50.364;8.958;2024-02-28T01:09:12;100339.81;;;3.87;87.83
17230;BME280;8731;50.364;8.958;2024-02-28T01:13:36;100350.53;;;3.72;87.56
17230;BME280;8731;50.364;8.958;2024-02-28T01:17:59;100351.81;;;3.76;87.62
17230;BME280;8731;50.364;8.958;2024-02-28T01:22:26;100349.63;;;3.64;87.32
17230;BME280;8731;50.364;8.958;2024-02-28T01:26:49;100360.03;;;3.60;88.21
17230;BME280;8731;50.364;8.958;2024-02-28T01:31:12;100359.47;;;3.56;86.96
17230;BME280;8731;50.364;8.958;2024-02-28T01:35:35;100358.00;;;3.51;87.94
17230;BME280;8731;50.364;8.958;2024-02-28T01:39:57;100359.19;;;3.33;89.81
17230;BME280;8731;50.364;8.958;2024-02-28T01:44:19;100352.78;;;2.88;91.72
17230;BME280;8731;50.364;8.958;2024-02-28T01:48:44;100357.97;;;2.90;91.52
17230;BME280;8731;50.364;8.958;2024-02-28T01:53:06;100363.28;;;3.05;89.72
17230;BME280;8731;50.364;8.958;2024-02-28T01:57:31;100369.41;;;3.07;88.04
17230;BME280;8731;50.364;8.958;2024-02-28T02:01:55;100359.63;;;2.96;88.25
17230;BME280;8731;50.364;8.958;2024-02-28T02:06:19;100366.59;;;2.65;92.43
17230;BME280;8731;50.364;8.958;2024-02-28T02:10:42;100360.31;;;2.88;89.90
17230;BME280;8731;50.364;8.958;2024-02-28T02:15:05;100369.84;;;2.71;91.58
17230;BME280;8731;50.364;8.958;2024-02-28T02:19:28;100367.25;;;2.84;89.30
17230;BME280;8731;50.364;8.958;2024-02-28T02:23:52;100368.69;;;2.82;89.10
17230;BME280;8731;50.364;8.958;2024-02-28T02:28:14;100373.75;;;2.62;90.52
17230;BME280;8731;50.364;8.958;2024-02-28T02:32:37;100370.81;;;2.59;90.69
17230;BME280;8731;50.364;8.958;2024-02-28T02:36:59;100372.53;;;2.33;92.56
17230;BME280;8731;50.364;8.958;2024-02-28T02:41:23;100385.56;;;2.23;93.26
17230;BME280;8731;50.364;8.958;2024-02-28T02:45:45;100375.72;;;2.44;90.76
17230;BME280;8731;50.364;8.958;2024-02-28T02:50:08;100384.28;;;2.39;90.82
17230;BME280;8731;50.364;8.958;2024-02-28T02:54:30;100394.19;;;2.25;90.16
17230;BME280;8731;50.364;8.958;2024-02-28T02:58:54;100389.53;;;2.28;90.22
17230;BME280;8731;50.364;8.958;2024-02-28T03:03:16;100394.38;;;2.27;90.40
17230;BME280;8731;50.364;8.958;2024-02-28T03:07:39;100384.47;;;2.21;89.39
17230;BME280;8731;50.364;8.958;2024-02-28T03:12:04;100392.69;;;2.20;89.89
17230;BME280;8731;50.364;8.958;2024-02-28T03:16:27;100397.66;;;2.13;90.60
17230;BME280;8731;50.364;8.958;2024-02-28T03:20:50;100412.72;;;2.13;89.64
17230;BME280;8731;50.364;8.958;2024-02-28T03:25:12;100402.09;;;1.96;90.79
17230;BME280;8731;50.364;8.958;2024-02-28T03:29:34;100417.63;;;2.06;90.26
17230;BME280;8731;50.364;8.958;2024-02-28T03:33:59;100429.41;;;1.87;91.44
17230;BME280;8731;50.364;8.958;2024-02-28T03:38:21;100434.25;;;1.73;92.05
17230;BME280;8731;50.364;8.958;2024-02-28T03:42:43;100438.25;;;1.65;94.09
17230;BME280;8731;50.364;8.958;2024-02-28T03:47:06;100437.56;;;1.53;94.35
17230;BME280;8731;50.364;8.958;2024-02-28T03:51:29;100439.19;;;1.53;93.99
17230;BME280;8731;50.364;8.958;2024-02-28T03:55:52;100440.47;;;1.18;97.00
17230;BME280;8731;50.364;8.958;2024-02-28T04:00:15;100441.84;;;1.42;94.46
17230;BME280;8731;50.364;8.958;2024-02-28T04:04:38;100444.19;;;1.53;93.02
17230;BME280;8731;50.364;8.958;2024-02-28T04:09:01;100449.72;;;1.50;92.04
17230;BME280;8731;50.364;8.958;2024-02-28T04:13:24;100460.25;;;1.48;91.86
17230;BME280;8731;50.364;8.958;2024-02-28T04:17:46;100475.06;;;1.34;94.59
17230;BME280;8731;50.364;8.958;2024-02-28T04:22:08;100471.97;;;1.42;94.54
17230;BME280;8731;50.364;8.958;2024-02-28T04:26:32;100467.19;;;1.43;95.01
17230;BME280;8731;50.364;8.958;2024-02-28T04:30:55;100474.97;;;1.39;95.06
17230;BME280;8731;50.364;8.958;2024-02-28T04:35:17;100478.06;;;1.18;98.47
17230;BME280;8731;50.364;8.958;2024-02-28T04:39:40;100487.94;;;0.99;100.00
17230;BME280;8731;50.364;8.958;2024-02-28T04:44:04;100499.16;;;0.95;100.00
17230;BME280;8731;50.364;8.958;2024-02-28T04:48:26;100510.03;;;1.14;96.68
17230;BME280;8731;50.364;8.958;2024-02-28T04:52:48;100510.38;;;1.22;95.37
17230;BME280;8731;50.364;8.958;2024-02-28T04:57:10;100522.22;;;1.23;93.90
17230;BME280;8731;50.364;8.958;2024-02-28T05:01:34;100529.44;;;0.97;95.49
17230;BME280;8731;50.364;8.958;2024-02-28T05:05:59;100530.75;;;1.00;95.74
17230;BME280;8731;50.364;8.958;2024-02-28T05:10:22;100536.09;;;1.09;94.35
17230;BME280;8731;50.364;8.958;2024-02-28T05:14:44;100542.78;;;1.03;95.38
17230;BME280;8731;50.364;8.958;2024-02-28T05:19:07;100554.97;;;0.94;96.61
17230;BME280;8731;50.364;8.958;2024-02-28T05:23:30;100558.16;;;0.93;98.60
17230;BME280;8731;50.364;8.958;2024-02-28T05:27:53;100555.88;;;0.95;98.03
17230;BME280;8731;50.364;8.958;2024-02-28T05:32:15;100556.94;;;0.84;100.00
17230;BME280;8731;50.364;8.958;2024-02-28T05:36:40;100551.56;;;0.93;100.00
17230;BME280;8731;50.364;8.958;2024-02-28T05:41:03;100564.56;;;1.09;100.00
17230;BME280;8731;50.364;8.958;2024-02-28T05:45:25;100556.25;;;1.16;100.00
17230;BME280;8731;50.364;8.958;2024-02-28T05:49:48;100564.84;;;1.05;100.00
17230;BME280;8731;50.364;8.958;2024-02-28T05:54:12;100567.97;;;1.10;100.00
17230;BME280;8731;50.364;8.958;2024-02-28T05:58:35;100574.38;;;1.26;100.00
17230;BME280;8731;50.364;8.958;2024-02-28T06:02:57;100592.97;;;1.15;100.00
17230;BME280;8731;50.364;8.958;2024-02-28T06:07:19;100575.28;;;1.27;100.00
17230;BME280;8731;50.364;8.958;2024-02-28T06:11:43;100589.31;;;1.63;100.00
17230;BME280;8731;50.364;8.958;2024-02-28T06:16:05;100586.69;;;1.43;100.00
17230;BME280;8731;50.364;8.958;2024-02-28T06:20:28;100578.16;;;1.48;100.00
17230;BME280;8731;50.364;8.958;2024-02-28T06:24:51;100591.81;;;1.50;100.00
17230;BME280;8731;50.364;8.958;2024-02-28T06:29:15;100606.94;;;1.75;100.00
17230;BME280;8731;50.364;8.958;2024-02-28T06:33:37;100611.84;;;1.68;100.00
17230;BME280;8731;50.364;8.958;2024-02-28T06:38:00;100607.81;;;1.76;100.00
17230;BME280;8731;50.364;8.958;2024-02-28T06:42:22;100610.78;;;1.92;100.00
17230;BME280;8731;50.364;8.958;2024-02-28T06:46:46;100623.94;;;1.96;100.00
17230;BME280;8731;50.364;8.958;2024-02-28T06:51:08;100631.84;;;1.87;100.00
17230;BME280;8731;50.364;8.958;2024-02-28T06:55:31;100624.84;;;1.97;100.00
17230;BME280;8731;50.364;8.958;2024-02-28T06:59:53;100634.09;;;2.03;100.00
17230;BME280;8731;50.364;8.958;2024-02-28T07:04:17;100645.25;;;2.18;100.00
17230;BME280;8731;50.364;8.958;2024-02-28T07:08:39;100650.16;;;2.11;100.00
17230;BME280;8731;50.364;8.958;2024-02-28T07:13:02;100647.75;;;2.31;100.00
17230;BME280;8731;50.364;8.958;2024-02-28T07:17:25;100657.25;;;2.39;100.00
17230;BME280;8731;50.364;8.958;2024-02-28T07:21:49;100664.03;;;2.27;100.00
17230;BME280;8731;50.364;8.958;2024-02-28T07:26:14;100676.41;;;2.26;100.00
17230;BME280;8731;50.364;8.958;2024-02-28T07:30:37;100681.03;;;2.48;100.00
17230;BME280;8731;50.364;8.958;2024-02-28T07:34:59;100676.31;;;2.57;100.00
17230;BME280;8731;50.364;8.958;2024-02-28T07:39:23;100689.41;;;2.67;100.00
17230;BME280;8731;50.364;8.958;2024-02-28T07:43:45;100682.16;;;2.63;100.00
17230;BME280;8731;50.364;8.958;2024-02-28T07:48:07;100682.44;;;2.59;100.00
17230;BME280;8731;50.364;8.958;2024-02-28T07:52:30;100686.47;;;2.76;100.00
17230;BME280;8731;50.364;8.958;2024-02-28T07:56:56;100699.97;;;2.64;100.00
17230;BME280;8731;50.364;8.958;2024-02-28T08:01:19;100703.78;;;2.68;100.00
17230;BME280;8731;50.364;8.958;2024-02-28T08:05:42;100696.00;;;2.54;100.00
17230;BME280;8731;50.364;8.958;2024-02-28T08:10:05;100695.22;;;2.73;100.00
17230;BME280;8731;50.364;8.958;2024-02-28T08:14:31;100692.72;;;2.86;100.00
17230;BME280;8731;50.364;8.958;2024-02-28T08:18:53;100687.47;;;2.84;100.00
17230;BME280;8731;50.364;8.958;2024-02-28T08:23:16;100691.91;;;2.92;100.00
17230;BME280;8731;50.364;8.958;2024-02-28T08:27:38;100697.31;;;2.95;100.00
17230;BME280;8731;50.364;8.958;2024-02-28T08:32:03;100701.03;;;2.92;100.00
17230;BME280;8731;50.364;8.958;2024-02-28T08:36:25;100690.56;;;3.01;100.00
17230;BME280;8731;50.364;8.958;2024-02-28T08:40:48;100700.56;;;3.27;100.00
17230;BME280;8731;50.364;8.958;2024-02-28T08:45:10;100698.88;;;3.20;100.00
17230;BME280;8731;50.364;8.958;2024-02-28T08:49:34;100710.09;;;3.10;100.00
17230;BME280;8731;50.364;8.958;2024-02-28T08:53:57;100717.06;;;3.25;100.00
17230;BME280;8731;50.364;8.958;2024-02-28T08:58:20;100719.72;;;3.32;100.00
17230;BME280;8731;50.364;8.958;2024-02-28T09:02:43;100733.63;;;3.10;100.00
17230;BME280;8731;50.364;8.958;2024-02-28T09:07:08;100746.59;;;3.13;100.00
17230;BME280;8731;50.364;8.958;2024-02-28T09:11:30;100747.00;;;2.91;100.00
17230;BME280;8731;50.364;8.958;2024-02-28T09:15:53;100749.72;;;3.18;100.00
17230;BME280;8731;50.364;8.958;2024-02-28T09:20:15;100738.69;;;3.30;100.00
17230;BME280;8731;50.364;8.958;2024-02-28T09:24:39;100737.41;;;3.39;100.00
17230;BME280;8731;50.364;8.958;2024-02-28T09:29:01;100745.59;;;3.18;100.00
17230;BME280;8731;50.364;8.958;2024-02-28T09:33:23;100750.94;;;3.47;100.00
17230;BME280;8731;50.364;8.958;2024-02-28T09:37:46;100758.69;;;3.48;100.00
17230;BME280;8731;50.364;8.958;2024-02-28T09:42:10;100757.00;;;3.42;100.00
17230;BME280;8731;50.364;8.958;2024-02-28T09:46:33;100758.63;;;3.74;100.00
17230;BME280;8731;50.364;8.958;2024-02-28T09:50:57;100755.59;;;3.56;100.00
17230;BME280;8731;50.364;8.958;2024-02-28T09:55:21;100750.22;;;3.60;100.00
17230;BME280;8731;50.364;8.958;2024-02-28T09:59:45;100752.63;;;3.53;100.00
17230;BME280;8731;50.364;8.958;2024-02-28T10:04:09;100744.94;;;3.72;100.00
17230;BME280;8731;50.364;8.958;2024-02-28T10:08:33;100744.03;;;3.71;100.00
17230;BME280;8731;50.364;8.958;2024-02-28T10:12:57;100750.38;;;3.94;100.00
17230;BME280;8731;50.364;8.958;2024-02-28T10:17:21;100753.81;;;3.95;100.00
17230;BME280;8731;50.364;8.958;2024-02-28T10:21:46;100755.44;;;4.14;100.00
17230;BME280;8731;50.364;8.958;2024-02-28T10:26:09;100751.69;;;4.38;100.00
17230;BME280;8731;50.364;8.958;2024-02-28T10:30:32;100761.72;;;4.30;100.00
17230;BME280;8731;50.364;8.958;2024-02-28T10:35:01;100763.31;;;4.10;100.00
17230;BME280;8731;50.364;8.958;2024-02-28T10:39:24;100767.91;;;4.20;100.00
17230;BME280;8731;50.364;8.958;2024-02-28T10:43:49;100764.84;;;4.62;100.00
17230;BME280;8731;50.364;8.958;2024-02-28T10:48:15;100753.31;;;4.64;100.00
17230;BME280;8731;50.364;8.958;2024-02-28T10:52:43;100761.97;;;4.66;100.00
17230;BME280;8731;50.364;8.958;2024-02-28T10:57:07;100778.50;;;4.84;100.00
17230;BME280;8731;50.364;8.958;2024-02-28T11:01:30;100781.16;;;5.05;98.01
17230;BME280;8731;50.364;8.958;2024-02-28T11:05:52;100787.56;;;4.69;97.57
17230;BME280;8731;50.364;8.958;2024-02-28T11:10:16;100787.56;;;4.96;96.93
17230;BME280;8731;50.364;8.958;2024-02-28T11:14:39;100781.84;;;4.97;98.62
17230;BME280;8731;50.364;8.958;2024-02-28T11:19:02;100780.81;;;5.09;96.56
17230;BME280;8731;50.364;8.958;2024-02-28T11:23:24;100771.28;;;5.14;96.04
17230;BME280;8731;50.364;8.958;2024-02-28T11:27:50;100780.91;;;4.97;96.82
17230;BME280;8731;50.364;8.958;2024-02-28T11:32:12;100769.31;;;5.18;95.52
17230;BME280;8731;50.364;8.958;2024-02-28T11:36:36;100775.56;;;5.01;95.90
17230;BME280;8731;50.364;8.958;2024-02-28T11:40:59;100762.88;;;4.93;96.43
17230;BME280;8731;50.364;8.958;2024-02-28T11:45:23;100764.84;;;5.23;93.93
17230;BME280;8731;50.364;8.958;2024-02-28T11:49:46;100754.31;;;5.13;95.36
17230;BME280;8731;50.364;8.958;2024-02-28T11:54:08;100749.66;;;5.64;94.09
17230;BME280;8731;50.364;8.958;2024-02-28T11:58:33;100764.84;;;5.23;93.21
17230;BME280;8731;50.364;8.958;2024-02-28T12:03:05;100761.88;;;6.09;91.80
17230;BME280;8731;50.364;8.958;2024-02-28T12:07:28;100751.59;;;6.01;90.84
17230;BME280;8731;50.364;8.958;2024-02-28T12:11:51;100747.81;;;6.54;90.28
17230;BME280;8731;50.364;8.958;2024-02-28T12:16:13;100743.25;;;6.80;88.54
17230;BME280;8731;50.364;8.958;2024-02-28T12:20:37;100730.78;;;7.33;86.27
17230;BME280;8731;50.364;8.958;2024-02-28T12:24:59;100730.34;;;7.07;83.58
17230;BME280;8731;50.364;8.958;2024-02-28T12:29:25;100721.78;;;8.18;82.51
17230;BME280;8731;50.364;8.958;2024-02-28T12:33:47;100713.44;;;7.66;80.93
17230;BME280;8731;50.364;8.958;2024-02-28T12:38:11;100714.41;;;7.59;80.86
17230;BME280;8731;50.364;8.958;2024-02-28T12:42:35;100702.41;;;8.80;81.90
17230;BME280;8731;50.364;8.958;2024-02-28T12:46:57;100703.66;;;8.99;78.04
17230;BME280;8731;50.364;8.958;2024-02-28T12:51:36;100694.72;;;10.16;77.26
17230;BME280;8731;50.364;8.958;2024-02-28T12:56:01;100688.00;;;9.43;74.05
17230;BME280;8731;50.364;8.958;2024-02-28T13:00:23;100681.19;;;10.66;74.02
17230;BME280;8731;50.364;8.958;2024-02-28T13:04:46;100675.47;;;10.60;70.21
17230;BME280;8731;50.364;8.958;2024-02-28T13:09:08;100666.72;;;12.13;70.88
17230;BME280;8731;50.364;8.958;2024-02-28T13:13:34;100651.97;;;11.49;68.32
17230;BME280;8731;50.364;8.958;2024-02-28T13:17:57;100652.84;;;11.58;66.49
17230;BME280;8731;50.364;8.958;2024-02-28T13:22:21;100641.03;;;11.50;70.39
17230;BME280;8731;50.364;8.958;2024-02-28T13:26:44;100644.47;;;11.50;68.78
17230;BME280;8731;50.364;8.958;2024-02-28T13:31:08;100629.94;;;11.49;70.45
17230;BME280;8731;50.364;8.958;2024-02-28T13:35:31;100634.63;;;11.36;70.04
17230;BME280;8731;50.364;8.958;2024-02-28T13:39:54;100629.25;;;11.95;71.03
17230;BME280;8731;50.364;8.958;2024-02-28T13:44:17;100617.03;;;11.48;69.84
17230;BME280;8731;50.364;8.958;2024-02-28T13:48:41;100620.03;;;11.61;70.98
17230;BME280;8731;50.364;8.958;2024-02-28T13:53:05;100619.94;;;10.90;70.62
17230;BME280;8731;50.364;8.958;2024-02-28T13:57:27;100610.19;;;11.03;70.27
17230;BME280;8731;50.364;8.958;2024-02-28T14:01:50;100608.84;;;11.07;71.92
17230;BME280;8731;50.364;8.958;2024-02-28T14:06:14;100606.31;;;10.98;70.63
17230;BME280;8731;50.364;8.958;2024-02-28T14:10:36;100613.75;;;9.70;73.41
17230;BME280;8731;50.364;8.958;2024-02-28T14:15:00;100610.81;;;9.34;75.13
17230;BME280;8731;50.364;8.958;2024-02-28T14:19:22;100611.28;;;9.14;76.90
17230;BME280;8731;50.364;8.958;2024-02-28T14:23:46;100612.94;;;9.63;76.56
17230;BME280;8731;50.364;8.958;2024-02-28T14:28:09;100600.34;;;9.89;75.77
17230;BME280;8731;50.364;8.958;2024-02-28T14:32:33;100603.56;;;9.70;73.46
17230;BME280;8731;50.364;8.958;2024-02-28T14:36:56;100609.28;;;9.76;74.03
17230;BME280;8731;50.364;8.958;2024-02-28T14:41:19;100602.41;;;9.84;73.61
17230;BME280;8731;50.364;8.958;2024-02-28T14:45:42;100603.94;;;9.91;73.11
17230;BME280;8731;50.364;8.958;2024-02-28T14:50:06;100596.84;;;9.71;70.28
17230;BME280;8731;50.364;8.958;2024-02-28T14:54:30;100594.50;;;9.90;69.88
17230;BME280;8731;50.364;8.958;2024-02-28T14:58:54;100589.13;;;9.87;70.02
17230;BME280;8731;50.364;8.958;2024-02-28T15:03:16;100590.81;;;9.95;71.32
17230;BME280;8731;50.364;8.958;2024-02-28T15:07:40;100587.75;;;9.81;72.01
17230;BME280;8731;50.364;8.958;2024-02-28T15:12:03;100576.59;;;9.97;72.38
17230;BME280;8731;50.364;8.958;2024-02-28T15:16:27;100579.75;;;9.94;71.48
17230;BME280;8731;50.364;8.958;2024-02-28T15:20:50;100586.25;;;9.83;70.22
17230;BME280;8731;50.364;8.958;2024-02-28T15:25:14;100582.66;;;9.81;67.05
17230;BME280;8731;50.364;8.958;2024-02-28T15:29:36;100585.06;;;9.80;65.96
17230;BME280;8731;50.364;8.958;2024-02-28T15:34:00;100593.72;;;9.73;64.49
17230;BME280;8731;50.364;8.958;2024-02-28T15:38:23;100594.63;;;9.74;64.96
17230;BME280;8731;50.364;8.958;2024-02-28T15:42:46;100595.53;;;9.83;66.04
17230;BME280;8731;50.364;8.958;2024-02-28T15:47:08;100599.25;;;9.78;66.26
17230;BME280;8731;50.364;8.958;2024-02-28T15:51:32;100595.75;;;9.69;66.83
17230;BME280;8731;50.364;8.958;2024-02-28T15:55:55;100591.91;;;9.72;67.12
17230;BME280;8731;50.364;8.958;2024-02-28T16:00:18;100592.06;;;9.74;67.61
17230;BME280;8731;50.364;8.958;2024-02-28T16:04:41;100593.06;;;9.67;67.33
17230;BME280;8731;50.364;8.958;2024-02-28T16:09:05;100598.41;;;9.62;68.02
17230;BME280;8731;50.364;8.958;2024-02-28T16:13:29;100594.78;;;9.51;68.38
17230;BME280;8731;50.364;8.958;2024-02-28T16:17:52;100590.13;;;9.47;69.51
17230;BME280;8731;50.364;8.958;2024-02-28T16:22:15;100600.69;;;9.43;69.55
17230;BME280;8731;50.364;8.958;2024-02-28T16:26:39;100597.03;;;9.48;69.94
17230;BME280;8731;50.364;8.958;2024-02-28T16:31:02;100594.13;;;9.20;69.70
17230;BME280;8731;50.364;8.958;2024-02-28T16:35:25;100597.66;;;9.30;69.80
17230;BME280;8731;50.364;8.958;2024-02-28T16:39:48;100593.72;;;9.25;70.56
17230;BME280;8731;50.364;8.958;2024-02-28T16:44:12;100591.22;;;9.09;70.54
17230;BME280;8731;50.364;8.958;2024-02-28T16:48:34;100588.78;;;9.02;70.82
17230;BME280;8731;50.364;8.958;2024-02-28T16:52:57;100579.75;;;8.97;71.59
17230;BME280;8731;50.364;8.958;2024-02-28T16:57:20;100599.44;;;8.90;71.50
17230;BME280;8731;50.364;8.958;2024-02-28T17:01:43;100597.91;;;8.84;71.63
17230;BME280;8731;50.364;8.958;2024-02-28T17:06:09;100597.47;;;8.72;72.38
17230;BME280;8731;50.364;8.958;2024-02-28T17:10:31;100596.50;;;8.63;73.13
17230;BME280;8731;50.364;8.958;2024-02-28T17:14:54;100603.66;;;8.58;73.18
17230;BME280;8731;50.364;8.958;2024-02-28T17:19:18;100601.00;;;8.50;73.68
17230;BME280;8731;50.364;8.958;2024-02-28T17:23:41;100597.75;;;8.35;74.44
17230;BME280;8731;50.364;8.958;2024-02-28T17:28:04;100603.56;;;8.27;74.59
17230;BME280;8731;50.364;8.958;2024-02-28T17:32:27;100609.38;;;8.10;75.19
17230;BME280;8731;50.364;8.958;2024-02-28T17:36:50;100608.25;;;7.92;75.84
17230;BME280;8731;50.364;8.958;2024-02-28T17:41:13;100611.59;;;7.84;76.64
17230;BME280;8731;50.364;8.958;2024-02-28T17:45:35;100606.53;;;7.84;76.11
17230;BME280;8731;50.364;8.958;2024-02-28T17:49:58;100607.84;;;7.74;76.44
17230;BME280;8731;50.364;8.958;2024-02-28T17:54:22;100607.53;;;7.70;76.73
17230;BME280;8731;50.364;8.958;2024-02-28T17:58:45;100609.97;;;7.62;76.81
17230;BME280;8731;50.364;8.958;2024-02-28T18:03:07;100609.47;;;7.50;77.47
17230;BME280;8731;50.364;8.958;2024-02-28T18:07:29;100611.09;;;7.50;77.33
17230;BME280;8731;50.364;8.958;2024-02-28T18:11:53;100605.19;;;7.42;77.58
17230;BME280;8731;50.364;8.958;2024-02-28T18:16:15;100609.56;;;7.06;78.75
17230;BME280;8731;50.364;8.958;2024-02-28T18:20:39;100607.75;;;7.05;79.08
17230;BME280;8731;50.364;8.958;2024-02-28T18:25:02;100606.00;;;6.97;79.06
17230;BME280;8731;50.364;8.958;2024-02-28T18:29:27;100605.69;;;6.87;80.08
17230;BME280;8731;50.364;8.958;2024-02-28T18:33:49;100603.69;;;6.91;79.01
17230;BME280;8731;50.364;8.958;2024-02-28T18:38:12;100599.75;;;6.86;79.29
17230;BME280;8731;50.364;8.958;2024-02-28T18:42:35;100601.78;;;6.60;80.64
17230;BME280;8731;50.364;8.958;2024-02-28T18:46:59;100604.75;;;6.35;82.46
17230;BME280;8731;50.364;8.958;2024-02-28T18:51:21;100586.47;;;6.52;81.24
17230;BME280;8731;50.364;8.958;2024-02-28T18:55:43;100593.53;;;6.47;81.40
17230;BME280;8731;50.364;8.958;2024-02-28T19:00:07;100593.56;;;6.40;80.54
17230;BME280;8731;50.364;8.958;2024-02-28T19:04:35;100596.44;;;6.43;80.79
17230;BME280;8731;50.364;8.958;2024-02-28T19:08:58;100596.09;;;6.40;80.59
17230;BME280;8731;50.364;8.958;2024-02-28T19:13:20;100586.38;;;6.29;80.71
17230;BME280;8731;50.364;8.958;2024-02-28T19:17:42;100589.13;;;6.16;82.01
17230;BME280;8731;50.364;8.958;2024-02-28T19:22:06;100586.41;;;6.00;82.89
17230;BME280;8731;50.364;8.958;2024-02-28T19:26:29;100589.31;;;6.03;82.55
17230;BME280;8731;50.364;8.958;2024-02-28T19:30:51;100578.47;;;6.04;82.00
17230;BME280;8731;50.364;8.958;2024-02-28T19:35:14;100590.75;;;6.01;82.41
17230;BME280;8731;50.364;8.958;2024-02-28T19:39:38;100597.03;;;5.62;84.46
17230;BME280;8731;50.364;8.958;2024-02-28T19:44:00;100589.66;;;5.71;84.69
17230;BME280;8731;50.364;8.958;2024-02-28T19:48:23;100584.22;;;5.82;84.02
17230;BME280;8731;50.364;8.958;2024-02-28T19:52:46;100596.16;;;5.76;83.33
17230;BME280;8731;50.364;8.958;2024-02-28T19:57:12;100593.25;;;5.59;83.73
17230;BME280;8731;50.364;8.958;2024-02-28T20:01:37;100602.81;;;5.47;85.42
17230;BME280;8731;50.364;8.958;2024-02-28T20:06:00;100604.41;;;5.39;85.47
17230;BME280;8731;50.364;8.958;2024-02-28T20:10:23;100595.19;;;5.26;85.55
17230;BME280;8731;50.364;8.958;2024-02-28T20:14:47;100599.72;;;5.35;85.28
17230;BME280;8731;50.364;8.958;2024-02-28T20:19:10;100595.56;;;5.29;85.66
17230;BME280;8731;50.364;8.958;2024-02-28T20:23:32;100589.97;;;5.24;84.83
17230;BME280;8731;50.364;8.958;2024-02-28T20:27:54;100587.59;;;5.18;84.92
17230;BME280;8731;50.364;8.958;2024-02-28T20:32:18;100578.41;;;5.12;84.22
17230;BME280;8731;50.364;8.958;2024-02-28T20:36:42;100584.06;;;4.75;86.18
17230;BME280;8731;50.364;8.958;2024-02-28T20:41:06;100584.09;;;4.97;85.83
17230;BME280;8731;50.364;8.958;2024-02-28T20:45:29;100571.66;;;4.91;84.75
17230;BME280;8731;50.364;8.958;2024-02-28T20:49:53;100586.41;;;4.81;85.20
17230;BME280;8731;50.364;8.958;2024-02-28T20:54:16;100581.31;;;4.67;85.68
17230;BME280;8731;50.364;8.958;2024-02-28T20:58:38;100587.94;;;4.59;86.88
17230;BME280;8731;50.364;8.958;2024-02-28T21:03:01;100589.56;;;4.58;86.48
17230;BME280;8731;50.364;8.958;2024-02-28T21:07:24;100587.41;;;4.54;86.03
17230;BME280;8731;50.364;8.958;2024-02-28T21:11:49;100580.97;;;4.29;87.12
17230;BME280;8731;50.364;8.958;2024-02-28T21:16:15;100587.09;;;4.31;87.78
17230;BME280;8731;50.364;8.958;2024-02-28T21:20:37;100587.13;;;4.39;86.98
17230;BME280;8731;50.364;8.958;2024-02-28T21:25:01;100576.75;;;4.23;87.06
17230;BME280;8731;50.364;8.958;2024-02-28T21:29:24;100581.28;;;4.25;86.17
17230;BME280;8731;50.364;8.958;2024-02-28T21:33:46;100581.63;;;4.21;86.85
17230;BME280;8731;50.364;8.958;2024-02-28T21:38:08;100584.09;;;4.14;86.94
17230;BME280;8731;50.364;8.958;2024-02-28T21:42:32;100573.28;;;4.08;87.29
17230;BME280;8731;50.364;8.958;2024-02-28T21:46:55;100565.63;;;3.94;87.25
17230;BME280;8731;50.364;8.958;2024-02-28T21:51:17;100566.31;;;3.93;88.01
17230;BME280;8731;50.364;8.958;2024-02-28T21:55:39;100566.72;;;3.96;87.41
17230;BME280;8731;50.364;8.958;2024-02-28T22:00:06;100567.56;;;3.89;87.00
17230;BME280;8731;50.364;8.958;2024-02-28T22:04:32;100564.47;;;3.85;87.08
17230;BME280;8731;50.364;8.958;2024-02-28T22:08:54;100556.72;;;3.56;89.17
17230;BME280;8731;50.364;8.958;2024-02-28T22:13:21;100551.41;;;3.48;89.93
17230;BME280;8731;50.364;8.958;2024-02-28T22:17:48;100556.81;;;3.51;89.60
17230;BME280;8731;50.364;8.958;2024-02-28T22:22:13;100557.09;;;3.59;88.98
17230;BME280;8731;50.364;8.958;2024-02-28T22:26:36;100555.28;;;3.58;88.66
17230;BME280;8731;50.364;8.958;2024-02-28T22:30:58;100556.19;;;3.39;89.86
17230;BME280;8731;50.364;8.958;2024-02-28T22:35:22;100547.16;;;3.14;91.63
17230;BME280;8731;50.364;8.958;2024-02-28T22:39:44;100551.84;;;2.98;94.34
17230;BME280;8731;50.364;8.958;2024-02-28T22:44:07;100548.84;;;3.21;91.40
17230;BME280;8731;50.364;8.958;2024-02-28T22:48:29;100534.19;;;3.31;90.27
17230;BME280;8731;50.364;8.958;2024-02-28T22:52:53;100529.88;;;3.30;89.78
17230;BME280;8731;50.364;8.958;2024-02-28T22:57:16;100530.09;;;3.31;90.22
17230;BME280;8731;50.364;8.958;2024-02-28T23:01:38;100533.59;;;3.26;89.10
17230;BME280;8731;50.364;8.958;2024-02-28T23:06:01;100533.09;;;3.29;88.82
17230;BME280;8731;50.364;8.958;2024-02-28T23:10:25;100540.72;;;3.16;89.43
17230;BME280;8731;50.364;8.958;2024-02-28T23:14:47;100533.59;;;3.06;89.41
17230;BME280;8731;50.364;8.958;2024-02-28T23:19:10;100529.28;;;3.05;88.60
17230;BME280;8731;50.364;8.958;2024-02-28T23:23:33;100524.84;;;2.90;89.57
17230;BME280;8731;50.364;8.958;2024-02-28T23:27:58;100521.03;;;2.87;90.70